Terminal Aerodrome Forecast
Issued by NWS

Home | Current Version | Previous Version | Text Only | Print | Product List | Glossary On
Versions: 1 2 3 4 5 6 7 8 9 10 11 12 13 14
000
FTUS45 KRIW 212300
TAFRKS
TAF
KRKS 212327Z 2200/2224 17010G20KT P6SM VCTS SCT060CB BKN080
     FM220300 18009KT P6SM -SHRA BKN050
     FM220700 20007KT P6SM VCSH BKN060
     FM221700 26016KT P6SM -SHRA SCT035 OVC100
     FM221900 27016KT P6SM VCTS FEW040CB OVC080=

USA.gov is the U.S. government's official web portal to all federal, state and local government web resources and services.